Time;durP1;ratioP1;P1;durP2;ratioP2;P2;SDS_P1;SDS_P2;PMS_P1;PMS_P2;Temp;Humidity;BMP_temperature;BMP_pressure;BME280_temperature;BME280_humidity;BME280_pressure;Samples;Min_cycle;Max_cycle;Signal;HPM_P1;HPM_P2
2021/07/15 00:00:40;;;;;;;;;3.00;3.00;;;;;28.24;64.57;98698.06;4994463;28;8854;-75
2021/07/15 00:03:12;;;;;;;;;2.00;2.00;;;;;28.22;64.22;98701.16;4995028;28;8834;-76
2021/07/15 00:05:41;;;;;;;;;2.25;2.25;;;;;28.20;64.51;98705.38;4995148;28;8846;-76
2021/07/15 00:08:12;;;;;;;;;1.75;1.75;;;;;28.21;64.06;98709.66;4994299;28;8956;-76
2021/07/15 00:10:46;;;;;;;;;0.75;0.75;;;;;28.13;63.80;98703.44;4994092;28;8850;-76
2021/07/15 00:13:15;;;;;;;;;0.75;0.75;;;;;28.17;63.93;98711.59;4993849;28;8834;-76
2021/07/15 00:15:47;;;;;;;;;1.00;1.00;;;;;28.12;63.75;98715.44;4994356;28;8893;-76
2021/07/15 00:18:22;;;;;;;;;1.00;1.00;;;;;28.06;64.44;98711.56;4994221;28;8865;-76
2021/07/15 00:20:50;;;;;;;;;2.00;2.00;;;;;28.05;64.94;98717.38;4994124;28;8849;-76
2021/07/15 00:23:19;;;;;;;;;0.75;0.75;;;;;28.02;64.78;98710.78;4994764;28;8846;-76
2021/07/15 00:25:48;;;;;;;;;1.25;1.25;;;;;28.00;64.64;98717.75;4993729;28;8928;-76
2021/07/15 00:28:17;;;;;;;;;1.25;1.25;;;;;27.99;63.92;98716.19;4977612;28;8925;-76
2021/07/15 00:30:46;;;;;;;;;1.50;1.50;;;;;27.91;63.74;98704.53;4994002;28;8876;-75
2021/07/15 00:33:15;;;;;;;;;2.00;2.00;;;;;27.97;64.38;98718.50;4993991;28;8850;-76
2021/07/15 00:35:44;;;;;;;;;1.75;1.75;;;;;27.93;63.52;98718.50;4978330;28;8866;-76
2021/07/15 00:38:12;;;;;;;;;1.25;1.25;;;;;27.94;64.36;98725.47;4998709;28;8850;-76
2021/07/15 00:40:41;;;;;;;;;1.00;1.00;;;;;27.96;63.66;98720.44;4998840;28;8838;-76
2021/07/15 00:43:10;;;;;;;;;1.00;1.00;;;;;27.93;64.18;98732.81;4998905;28;8854;-76
2021/07/15 00:45:38;;;;;;;;;1.75;1.75;;;;;27.96;63.89;98727.78;5000203;28;8934;-76
2021/07/15 00:48:07;;;;;;;;;1.00;1.00;;;;;27.95;63.76;98743.28;4999044;28;8842;-76
2021/07/15 00:50:36;;;;;;;;;1.50;1.50;;;;;27.93;63.69;98740.19;4997528;28;8960;-76
2021/07/15 00:53:05;;;;;;;;;0.75;0.75;;;;;27.94;63.42;98749.88;4996242;28;8858;-74
2021/07/15 00:55:39;;;;;;;;;1.75;1.75;;;;;27.94;64.14;98742.50;4996252;28;8924;-74
2021/07/15 00:58:10;;;;;;;;;2.00;2.00;;;;;27.94;64.47;98753.34;4996380;28;8965;-74
2021/07/15 01:00:40;;;;;;;;;0.75;0.75;;;;;27.95;63.93;98743.28;4995816;28;8850;-74
2021/07/15 01:03:10;;;;;;;;;1.75;1.75;;;;;27.91;64.41;98742.50;4994842;28;8859;-74
2021/07/15 01:05:44;;;;;;;;;1.50;1.50;;;;;27.90;63.05;98733.59;4994802;28;8866;-74
2021/07/15 01:08:14;;;;;;;;;1.00;1.00;;;;;27.91;63.49;98724.28;4995068;28;8858;-74
2021/07/15 01:11:14;;;;;;;;;1.75;1.75;;;;;27.96;65.22;98722.38;4995209;28;8881;-73
2021/07/15 01:13:50;;;;;;;;;1.50;1.50;;;;;27.96;63.98;98715.00;4995792;28;8858;-74
2021/07/15 01:16:36;;;;;;;;;1.75;1.75;;;;;27.98;62.90;98725.47;4995036;28;9702;-75
2021/07/15 01:19:44;;;;;;;;;1.00;1.00;;;;;28.02;63.41;98720.84;4994857;28;8851;-74
2021/07/15 01:22:35;;;;;;;;;2.00;2.00;;;;;28.09;63.32;98712.72;4994904;28;8886;-73
2021/07/15 01:25:35;;;;;;;;;2.25;2.25;;;;;28.11;64.99;98718.53;4995752;28;9009;-75
2021/07/15 01:28:20;;;;;;;;;2.00;2.00;;;;;28.07;65.35;98712.34;4995555;28;8865;-74
2021/07/15 01:30:52;;;;;;;;;2.00;2.00;;;;;28.05;64.23;98714.66;4993504;28;8993;-75
2021/07/15 01:33:30;;;;;;;;;1.00;1.00;;;;;28.08;64.70;98711.94;4994461;28;8956;-74
2021/07/15 01:36:09;;;;;;;;;2.75;2.75;;;;;28.12;65.57;98703.81;4995044;28;8881;-76
2021/07/15 01:38:54;;;;;;;;;1.25;1.25;;;;;28.16;65.08;98705.38;4994504;28;8953;-75
2021/07/15 01:41:30;;;;;;;;;1.00;1.00;;;;;28.25;64.58;98707.75;4993509;28;8936;-75
2021/07/15 01:44:04;;;;;;;;;1.00;1.00;;;;;28.27;64.24;98702.72;4976728;28;8851;-75
2021/07/15 01:46:34;;;;;;;;;1.00;1.00;;;;;28.44;63.48;98712.81;4974865;28;9574;-76
2021/07/15 01:49:04;;;;;;;;;1.50;1.50;;;;;28.52;64.29;98705.47;4984988;28;8891;-74
2021/07/15 01:51:35;;;;;;;;;1.75;1.75;;;;;28.71;63.55;98720.56;4982953;28;8842;-76
2021/07/15 01:54:06;;;;;;;;;1.75;1.75;;;;;28.80;63.03;98721.72;5003196;28;8868;-73
2021/07/15 01:56:38;;;;;;;;;0.75;0.75;;;;;28.89;63.20;98716.69;4975789;28;8945;-74
2021/07/15 01:59:13;;;;;;;;;0.75;0.75;;;;;28.99;62.57;98714.38;4990850;28;8874;-76
2021/07/15 02:01:46;;;;;;;;;1.25;1.25;;;;;29.05;61.83;98712.81;4996165;28;8957;-75
2021/07/15 02:04:14;;;;;;;;;2.75;2.75;;;;;29.17;62.46;98718.59;4960784;28;8875;-74
2021/07/15 02:06:47;;;;;;;;;1.00;1.00;;;;;29.26;62.10;98712.75;4989934;28;8862;-74
2021/07/15 02:09:18;;;;;;;;;2.25;2.25;;;;;29.29;61.63;98717.41;4989825;28;8972;-74
2021/07/15 02:11:50;;;;;;;;;1.25;1.25;;;;;29.33;62.33;98736.44;4994341;28;8839;-73
2021/07/15 02:14:23;;;;;;;;;2.50;2.50;;;;;29.31;62.09;98734.09;4999816;28;8848;-74
2021/07/15 02:16:54;;;;;;;;;1.00;1.00;;;;;29.25;61.51;98729.44;4992088;28;8838;-74
2021/07/15 02:19:24;;;;;;;;;0.75;0.75;;;;;29.19;61.31;98729.84;5000011;28;8881;-73
2021/07/15 02:21:55;;;;;;;;;2.25;2.25;;;;;29.24;61.66;98744.97;4977663;28;8941;-75
2021/07/15 02:24:28;;;;;;;;;1.60;1.60;;;;;29.24;61.58;98744.97;4992731;28;8874;-74
2021/07/15 02:26:57;;;;;;;;;1.60;1.60;;;;;29.23;60.94;98735.28;4992364;28;8847;-75
2021/07/15 02:29:26;;;;;;;;;2.75;2.75;;;;;29.29;60.46;98749.25;4991614;28;8873;-77
2021/07/15 02:32:00;;;;;;;;;1.50;1.50;;;;;29.30;60.97;98750.78;4993063;28;8863;-75
2021/07/15 02:34:34;;;;;;;;;0.75;0.75;;;;;29.25;61.36;98753.91;4990871;28;8823;-76
2021/07/15 02:37:05;;;;;;;;;2.00;2.00;;;;;29.17;61.35;98753.91;4992815;28;8863;-73
2021/07/15 02:39:34;;;;;;;;;3.00;3.00;;;;;29.11;61.63;98750.03;4973088;28;8926;-75
2021/07/15 02:42:03;;;;;;;;;2.75;2.75;;;;;29.01;61.44;98736.47;4993579;28;8873;-74
2021/07/15 02:44:32;;;;;;;;;2.75;2.75;;;;;29.02;61.44;98746.94;4993247;28;8837;-74
2021/07/15 02:47:00;;;;;;;;;1.75;1.75;;;;;28.97;61.31;98750.06;4993369;28;8839;-73
2021/07/15 02:49:29;;;;;;;;;3.00;3.00;;;;;28.94;61.12;98747.34;4992900;28;8949;-74
2021/07/15 02:51:58;;;;;;;;;1.25;1.25;;;;;28.99;61.37;98753.16;4992547;28;8858;-73
2021/07/15 02:54:26;;;;;;;;;2.75;2.75;;;;;29.00;61.30;98757.44;4993488;28;8873;-74
2021/07/15 02:57:27;;;;;;;;;3.25;3.25;;;;;28.98;61.52;98757.03;4976709;28;8846;-74
2021/07/15 03:00:09;;;;;;;;;1.75;1.75;;;;;28.96;61.18;98759.38;4992801;28;8992;-74
2021/07/15 03:03:08;;;;;;;;;4.00;4.00;;;;;28.89;61.34;98759.38;4993859;28;8843;-74
2021/07/15 03:05:56;;;;;;;;;2.00;2.00;;;;;28.89;61.44;98762.84;4993851;28;8854;-74
2021/07/15 03:08:30;;;;;;;;;2.75;2.75;;;;;28.88;61.51;98769.44;4993945;28;8898;-74
2021/07/15 03:11:02;;;;;;;;;3.00;2.75;;;;;28.90;61.82;98763.63;4993808;28;8893;-74
2021/07/15 03:13:32;;;;;;;;;3.00;3.00;;;;;28.90;61.99;98761.69;4993806;28;8849;-74
2021/07/15 03:16:02;;;;;;;;;3.75;3.75;;;;;28.94;62.02;98761.69;4994069;28;9607;-74
2021/07/15 03:18:57;;;;;;;;;4.00;4.00;;;;;28.98;61.72;98767.13;4993609;28;8818;-75
2021/07/15 03:21:27;;;;;;;;;2.00;2.00;;;;;28.98;61.39;98770.63;4992233;28;8965;-75
2021/07/15 03:23:58;;;;;;;;;4.25;3.00;;;;;28.99;60.13;98768.69;4991748;28;8980;-75
2021/07/15 03:26:30;;;;;;;;;2.50;2.50;;;;;29.04;60.83;98774.50;4992076;28;8849;-74
2021/07/15 03:29:01;;;;;;;;;2.00;2.00;;;;;29.06;61.17;98766.72;4992010;28;8858;-74
2021/07/15 03:31:30;;;;;;;;;3.25;3.25;;;;;29.09;60.96;98774.09;4991857;28;9051;-75
2021/07/15 03:33:59;;;;;;;;;1.75;1.75;;;;;29.09;61.01;98771.38;4992580;28;8858;-75
2021/07/15 03:36:28;;;;;;;;;3.00;3.00;;;;;29.08;61.09;98769.84;4992703;28;9587;-74
2021/07/15 03:38:58;;;;;;;;;3.50;3.50;;;;;28.99;61.23;98768.69;4993066;28;8866;-76
2021/07/15 03:41:27;;;;;;;;;2.25;2.25;;;;;28.99;60.94;98764.03;4992581;28;8862;-74
2021/07/15 03:43:57;;;;;;;;;4.25;4.25;;;;;28.98;61.22;98767.91;4993165;28;8858;-75
2021/07/15 03:46:28;;;;;;;;;2.75;2.75;;;;;28.97;61.27;98774.50;4993117;28;8969;-75
2021/07/15 03:48:57;;;;;;;;;3.00;3.00;;;;;28.89;61.63;98768.28;4993186;28;8864;-74
2021/07/15 03:51:27;;;;;;;;;3.50;3.50;;;;;28.93;61.35;98773.72;4992946;28;8858;-75
2021/07/15 03:53:56;;;;;;;;;2.75;2.75;;;;;28.94;61.19;98766.34;4976174;28;8850;-76
2021/07/15 03:56:26;;;;;;;;;1.75;1.75;;;;;28.93;60.86;98754.72;4993248;28;8869;-76
2021/07/15 03:59:00;;;;;;;;;3.00;3.00;;;;;29.03;60.81;98753.94;4992139;28;8880;-75
2021/07/15 04:01:33;;;;;;;;;4.25;4.25;;;;;29.04;61.09;98752.00;4992332;28;8969;-76
2021/07/15 04:04:06;;;;;;;;;3.00;3.00;;;;;29.09;61.05;98746.94;4975544;28;8866;-74
2021/07/15 04:06:37;;;;;;;;;3.00;3.00;;;;;29.12;61.55;98748.09;4992738;28;8858;-75
2021/07/15 04:09:09;;;;;;;;;3.00;3.00;;;;;29.14;62.16;98738.41;4992157;28;8850;-75
2021/07/15 04:11:45;;;;;;;;;4.00;4.00;;;;;29.28;62.18;98744.97;4992044;28;8976;-72
2021/07/15 04:14:22;;;;;;;;;2.00;2.00;;;;;29.42;62.08;98740.31;4993664;28;8948;-74
2021/07/15 04:17:08;;;;;;;;;3.00;3.00;;;;;29.59;60.98;98738.72;4991972;28;8870;-74
2021/07/15 04:19:38;;;;;;;;;3.25;3.25;;;;;29.76;60.67;98740.59;4992671;28;8846;-73
2021/07/15 04:22:11;;;;;;;;;3.50;3.50;;;;;29.94;60.41;98726.09;4991976;28;8984;-74
2021/07/15 04:24:43;;;;;;;;;4.00;4.00;;;;;30.11;60.01;98731.47;4992455;28;8854;-74
2021/07/15 04:27:16;;;;;;;;;3.25;3.25;;;;;30.19;60.08;98732.22;4992122;28;8868;-72
2021/07/15 04:29:46;;;;;;;;;3.75;3.75;;;;;30.25;59.68;98727.91;4991862;28;8874;-76
2021/07/15 04:32:23;;;;;;;;;2.75;2.75;;;;;30.22;59.85;98730.66;4979771;28;8889;-74
2021/07/15 04:34:54;;;;;;;;;4.00;4.00;;;;;30.14;59.86;98721.75;4972402;28;8915;-77
2021/07/15 04:37:23;;;;;;;;;4.25;4.25;;;;;30.15;59.93;98728.75;4974637;28;8830;-77
2021/07/15 04:39:55;;;;;;;;;2.75;2.75;;;;;30.17;60.03;98724.44;4990937;28;8854;-76
2021/07/15 04:42:27;;;;;;;;;2.75;2.75;;;;;30.22;58.74;98714.31;4992145;28;8857;-74
2021/07/15 04:44:57;;;;;;;;;3.00;3.00;;;;;30.25;59.29;98699.91;4988764;28;8846;-75
2021/07/15 04:47:26;;;;;;;;;3.00;3.00;;;;;30.33;59.17;98709.59;4976336;28;8852;-76
2021/07/15 04:49:56;;;;;;;;;3.25;3.25;;;;;30.26;59.36;98688.63;4977105;28;8860;-74
2021/07/15 04:52:26;;;;;;;;;2.00;2.00;;;;;30.31;59.33;98701.06;4987270;28;8870;-77
2021/07/15 04:54:57;;;;;;;;;3.75;3.75;;;;;30.26;59.42;98696.03;4962309;28;9665;-76
2021/07/15 04:57:27;;;;;;;;;2.75;2.75;;;;;30.21;59.68;98697.22;4957434;28;8952;-75
2021/07/15 04:59:55;;;;;;;;;2.40;2.40;;;;;30.15;59.52;98690.66;4962398;28;8964;-75
2021/07/15 05:02:24;;;;;;;;;1.80;1.80;;;;;30.07;59.32;98689.16;4962298;28;8896;-73
2021/07/15 05:04:53;;;;;;;;;3.00;3.00;;;;;30.02;59.43;98686.84;4967096;28;8872;-77
2021/07/15 05:07:22;;;;;;;;;1.75;1.75;;;;;29.99;59.86;98682.94;4966930;28;8845;-77
2021/07/15 05:09:51;;;;;;;;;3.60;3.60;;;;;29.95;59.60;98670.53;4963227;28;8857;-77
2021/07/15 05:12:20;;;;;;;;;1.75;1.75;;;;;29.97;59.89;98666.25;4958823;28;8851;-76
2021/07/15 05:14:48;;;;;;;;;2.00;2.00;;;;;29.91;59.95;98651.53;4964359;28;8834;-75
2021/07/15 05:17:17;;;;;;;;;2.00;2.00;;;;;30.00;59.82;98645.66;4964074;28;9664;-78
2021/07/15 05:19:46;;;;;;;;;2.20;2.20;;;;;30.11;59.74;98646.38;4968755;28;8846;-80
2021/07/15 05:22:15;;;;;;;;;2.20;2.20;;;;;30.26;59.83;98638.88;4964803;28;8873;-76
2021/07/15 05:24:44;;;;;;;;;2.80;2.80;;;;;30.37;60.00;98645.03;4967661;28;8951;-75
2021/07/15 05:27:12;;;;;;;;;4.20;4.20;;;;;30.47;59.92;98639.50;4961653;28;8855;-76
2021/07/15 05:29:41;;;;;;;;;3.00;3.00;;;;;30.60;59.52;98639.03;4968588;28;8955;-77
2021/07/15 05:32:10;;;;;;;;;3.20;3.20;;;;;30.64;59.62;98640.53;4963388;28;8963;-76
2021/07/15 05:34:38;;;;;;;;;2.20;2.20;;;;;30.72;57.96;98641.25;4964797;28;8956;-75
2021/07/15 05:37:07;;;;;;;;;2.25;2.25;;;;;30.69;59.27;98637.38;4965968;28;8899;-76
2021/07/15 05:39:39;;;;;;;;;3.00;3.00;;;;;30.69;59.58;98642.81;4965471;28;8902;-75
2021/07/15 05:42:07;;;;;;;;;2.00;2.00;;;;;30.64;59.35;98631.59;4973544;28;8900;-75
2021/07/15 05:44:36;;;;;;;;;2.80;2.80;;;;;30.57;59.46;98634.34;4957134;28;8860;-75
2021/07/15 05:47:07;;;;;;;;;3.00;3.00;;;;;30.53;60.60;98634.38;4953289;28;8894;-76
2021/07/15 05:49:40;;;;;;;;;0.80;0.80;;;;;30.45;61.53;98630.94;4954605;28;8867;-76
2021/07/15 05:52:09;;;;;;;;;2.00;2.00;;;;;30.39;60.78;98634.50;4959976;28;9014;-74
2021/07/15 05:54:38;;;;;;;;;1.20;1.20;;;;;30.31;62.24;98633.78;4991125;28;9631;-75
2021/07/15 05:57:08;;;;;;;;;2.80;2.80;;;;;30.21;62.41;98626.47;4993071;28;8922;-74
2021/07/15 05:59:40;;;;;;;;;2.40;2.40;;;;;30.11;63.27;98616.47;4974230;28;8850;-75
2021/07/15 06:02:10;;;;;;;;;1.60;1.60;;;;;30.07;63.47;98618.44;4994859;28;8847;-75
2021/07/15 06:04:39;;;;;;;;;2.80;2.80;;;;;30.07;63.78;98621.91;4995358;28;9665;-74
2021/07/15 06:07:08;;;;;;;;;2.20;2.20;;;;;30.06;64.66;98614.16;4996262;28;8980;-75
2021/07/15 06:09:37;;;;;;;;;2.80;2.80;;;;;30.05;64.18;98610.66;4984846;28;8944;-74
2021/07/15 06:12:06;;;;;;;;;2.00;2.00;;;;;30.10;64.76;98612.19;5007560;28;8847;-75
2021/07/15 06:14:35;;;;;;;;;2.80;2.80;;;;;30.11;63.83;98598.19;4986028;28;8871;-75
2021/07/15 06:17:05;;;;;;;;;2.00;2.00;;;;;30.16;63.10;98600.47;4999340;28;8852;-75
2021/07/15 06:19:34;;;;;;;;;3.00;3.00;;;;;30.18;63.63;98592.69;4999117;28;8838;-74
2021/07/15 06:22:03;;;;;;;;;2.20;2.20;;;;;30.23;63.16;98585.28;4994699;28;8961;-74
2021/07/15 06:24:32;;;;;;;;;1.60;1.60;;;;;30.18;61.53;98570.16;4977010;28;8905;-74
2021/07/15 06:27:02;;;;;;;;;1.40;1.40;;;;;30.27;60.77;98588.72;5000433;28;8858;-74
2021/07/15 06:29:31;;;;;;;;;2.40;2.40;;;;;30.30;61.29;98596.09;4994357;28;8867;-75
2021/07/15 06:32:00;;;;;;;;;2.60;2.60;;;;;30.28;61.38;98582.13;4992937;28;8957;-75
2021/07/15 06:34:28;;;;;;;;;2.00;2.00;;;;;30.36;61.01;98583.59;4999159;28;8924;-75
2021/07/15 06:36:57;;;;;;;;;1.80;1.80;;;;;30.39;61.76;98585.53;4998990;28;8847;-71
2021/07/15 06:39:26;;;;;;;;;1.80;1.80;;;;;30.36;61.11;98570.78;5000137;28;9551;-76
2021/07/15 06:41:58;;;;;;;;;2.80;2.80;;;;;30.38;61.31;98560.25;5002297;28;8875;-77
2021/07/15 06:44:26;;;;;;;;;2.00;2.00;;;;;30.37;61.40;98561.44;5000553;28;8858;-74
2021/07/15 06:46:55;;;;;;;;;3.00;3.00;;;;;30.34;61.18;98562.22;4980964;28;8864;-73
2021/07/15 06:49:26;;;;;;;;;2.20;2.20;;;;;30.35;61.97;98563.00;4999851;28;8821;-73
2021/07/15 06:51:57;;;;;;;;;2.80;2.80;;;;;30.36;62.00;98556.38;4991445;28;9652;-74
2021/07/15 06:54:26;;;;;;;;;2.00;2.00;;;;;30.35;61.34;98554.84;4987910;28;8921;-74
2021/07/15 06:56:55;;;;;;;;;3.00;3.00;;;;;30.35;60.90;98549.41;4993340;28;8935;-73
2021/07/15 06:59:23;;;;;;;;;2.00;2.00;;;;;30.29;60.55;98549.06;4995362;28;8856;-74
2021/07/15 07:01:52;;;;;;;;;3.40;3.40;;;;;30.34;61.14;98553.28;4999251;28;8852;-73
2021/07/15 07:04:44;;;;;;;;;2.80;2.80;;;;;30.32;61.07;98561.88;4994171;28;8819;-75
2021/07/15 07:07:13;;;;;;;;;2.00;2.00;;;;;30.35;60.92;98557.56;4990682;28;8873;-77
2021/07/15 07:09:41;;;;;;;;;2.40;2.40;;;;;30.35;60.25;98538.50;4990483;28;8858;-75
2021/07/15 07:12:10;;;;;;;;;3.80;3.80;;;;;30.26;61.09;98541.72;4987801;28;8849;-75
2021/07/15 07:14:42;;;;;;;;;3.40;3.40;;;;;30.23;61.26;98530.84;4991202;28;8850;-75
2021/07/15 07:17:10;;;;;;;;;3.00;3.00;;;;;30.19;61.39;98542.53;4988515;28;9584;-75
2021/07/15 07:19:39;;;;;;;;;3.00;3.00;;;;;30.13;61.57;98548.81;4991262;28;8843;-74
2021/07/15 07:22:09;;;;;;;;;2.00;2.00;;;;;30.05;60.64;98550.06;4978268;28;8842;-75
2021/07/15 07:24:37;;;;;;;;;4.40;4.40;;;;;29.94;60.59;98546.63;4979549;28;8887;-75
2021/07/15 07:27:06;;;;;;;;;2.00;2.00;;;;;29.80;61.33;98544.81;4981862;28;8854;-75
2021/07/15 07:29:35;;;;;;;;;0.40;0.40;;;;;29.70;61.08;98546.41;4999631;28;8950;-74
2021/07/15 07:32:04;;;;;;;;;1.60;1.60;;;;;29.47;60.88;98548.91;4999743;28;8850;-74
2021/07/15 07:34:33;;;;;;;;;1.40;1.40;;;;;29.16;61.06;98534.28;4983591;28;8900;-74
2021/07/15 07:37:02;;;;;;;;;0.20;0.20;;;;;28.88;65.69;98544.09;4989144;28;8886;-76
2021/07/15 07:39:31;;;;;;;;;0.80;0.80;;;;;28.66;66.01;98552.66;4997739;28;8910;-73
2021/07/15 07:42:01;;;;;;;;;0.00;0.00;;;;;28.42;66.52;98563.19;4993963;28;8835;-74
2021/07/15 07:44:29;;;;;;;;;1.60;1.60;;;;;28.13;66.13;98558.94;4992736;28;8847;-75
2021/07/15 07:46:59;;;;;;;;;1.00;1.00;;;;;27.88;64.96;98553.50;5001619;28;8850;-74
2021/07/15 07:49:28;;;;;;;;;0.80;0.80;;;;;27.63;66.72;98548.03;4989816;28;8909;-74
2021/07/15 07:51:57;;;;;;;;;1.00;1.00;;;;;27.45;66.88;98552.63;4991608;28;8854;-75
2021/07/15 07:54:30;;;;;;;;;0.50;0.50;;;;;27.26;67.42;98549.13;4991680;28;8842;-76
2021/07/15 07:56:59;;;;;;;;;1.00;1.00;;;;;27.12;68.75;98537.47;4975907;28;8985;-74
2021/07/15 07:59:28;;;;;;;;;2.00;2.00;;;;;27.02;69.01;98525.44;4992342;28;8846;-74
2021/07/15 08:01:57;;;;;;;;;1.50;1.50;;;;;26.95;70.59;98517.25;4988955;28;8857;-76
2021/07/15 08:04:26;;;;;;;;;1.25;1.25;;;;;26.92;67.44;98518.00;4995483;28;8980;-76
2021/07/15 08:06:55;;;;;;;;;0.50;0.50;;;;;26.84;68.42;98522.63;5010144;28;8868;-75
2021/07/15 08:09:25;;;;;;;;;0.75;0.75;;;;;26.72;71.83;98525.66;4990883;28;8885;-77
2021/07/15 08:11:55;;;;;;;;;0.00;0.00;;;;;26.67;71.87;98531.44;4991686;28;8862;-77
2021/07/15 08:14:24;;;;;;;;;0.00;0.00;;;;;26.62;69.97;98529.06;4992096;28;8850;-77
2021/07/15 08:16:52;;;;;;;;;0.00;0.00;;;;;26.57;66.71;98524.03;4974783;28;8849;-77
2021/07/15 08:19:22;;;;;;;;;0.50;0.50;;;;;26.62;66.48;98535.25;4973358;28;8920;-77
2021/07/15 08:21:52;;;;;;;;;0.25;0.25;;;;;26.67;66.24;98525.25;4973053;28;8854;-75
2021/07/15 08:24:21;;;;;;;;;0.00;0.00;;;;;26.69;65.69;98518.28;4984168;28;8858;-75
2021/07/15 08:26:50;;;;;;;;;0.00;0.00;;;;;26.68;65.86;98514.03;4992538;28;8862;-73
2021/07/15 08:29:19;;;;;;;;;0.00;0.00;;;;;26.70;66.72;98509.03;4985679;28;8949;-74
2021/07/15 08:31:48;;;;;;;;;0.00;0.00;;;;;26.73;65.78;98504.78;4984966;28;8868;-74
2021/07/15 08:34:17;;;;;;;;;0.75;0.75;;;;;26.76;65.44;98506.72;4987580;28;8858;-72
2021/07/15 08:36:55;;;;;;;;;0.00;0.00;;;;;26.73;65.34;98486.63;4997763;28;8864;-73
2021/07/15 08:39:25;;;;;;;;;0.00;0.00;;;;;26.67;65.13;98466.50;4999754;28;9565;-73
2021/07/15 08:41:55;;;;;;;;;0.75;0.75;;;;;26.70;66.69;98460.31;5010539;28;8848;-73
2021/07/15 08:44:25;;;;;;;;;0.00;0.00;;;;;26.70;66.10;98463.03;4984831;28;8846;-73
2021/07/15 08:46:57;;;;;;;;;0.25;0.25;;;;;26.73;66.04;98450.66;4974098;28;8952;-75
2021/07/15 08:49:27;;;;;;;;;0.00;0.00;;;;;26.78;65.56;98453.00;4973827;28;8945;-75
2021/07/15 08:51:59;;;;;;;;;0.75;0.75;;;;;26.82;65.82;98451.88;4990855;28;8977;-75
2021/07/15 08:57:10;;;;;;;;;0.75;0.75;;;;;26.88;66.19;98436.81;4995381;28;8862;-76
2021/07/15 08:59:42;;;;;;;;;1.00;1.00;;;;;26.91;67.76;98433.34;4987666;28;9593;-76
2021/07/15 09:02:18;;;;;;;;;1.00;1.00;;;;;27.01;68.70;98433.78;5003422;28;8850;-76
2021/07/15 09:04:48;;;;;;;;;1.00;1.00;;;;;27.06;70.52;98436.88;4982994;28;8932;-73
2021/07/15 09:07:18;;;;;;;;;0.25;0.25;;;;;27.10;68.69;98426.84;4996328;28;8859;-76
2021/07/15 09:09:48;;;;;;;;;0.25;0.25;;;;;27.14;69.56;98422.19;5003618;28;9565;-76
2021/07/15 09:12:17;;;;;;;;;1.00;1.00;;;;;27.15;69.59;98414.84;5003770;28;8905;-76
2021/07/15 09:14:53;;;;;;;;;1.50;1.50;;;;;27.16;69.54;98421.81;5002313;28;8850;-75
2021/07/15 09:17:30;;;;;;;;;0.75;0.75;;;;;27.18;69.70;98416.78;4993641;28;8938;-75
2021/07/15 09:20:00;;;;;;;;;2.75;2.75;;;;;27.13;69.34;98412.53;4996239;28;8835;-75
2021/07/15 09:22:32;;;;;;;;;1.75;1.75;;;;;27.21;70.08;98419.50;4995279;28;8846;-75
2021/07/15 09:25:02;;;;;;;;;1.00;1.00;;;;;27.22;70.15;98425.69;5003887;28;8866;-76
2021/07/15 09:27:55;;;;;;;;;1.00;1.00;;;;;27.26;69.22;98419.13;4994634;28;8940;-75
2021/07/15 09:30:24;;;;;;;;;1.00;1.00;;;;;27.33;69.48;98417.56;4994466;28;9575;-74
2021/07/15 09:33:05;;;;;;;;;2.00;2.00;;;;;27.38;69.57;98417.94;4993361;28;8838;-74
2021/07/15 09:35:39;;;;;;;;;1.00;1.00;;;;;27.41;69.84;98422.59;4994486;28;9596;-75
2021/07/15 09:38:14;;;;;;;;;1.00;1.00;;;;;27.38;69.96;98422.59;4980848;28;8845;-74
2021/07/15 09:41:04;;;;;;;;;1.50;1.50;;;;;27.48;70.16;98435.38;4975323;28;9633;-74
2021/07/15 09:43:41;;;;;;;;;2.00;2.00;;;;;27.46;69.64;98421.44;4975227;28;8872;-75
2021/07/15 09:46:18;;;;;;;;;1.00;1.00;;;;;27.50;69.50;98422.97;4974740;28;8857;-75
2021/07/15 09:49:08;;;;;;;;;1.25;1.25;;;;;27.51;69.99;98416.41;4973741;28;8865;-72
2021/07/15 09:51:42;;;;;;;;;2.75;2.75;;;;;27.55;69.85;98424.53;4975021;28;8861;-74
2021/07/15 09:54:12;;;;;;;;;0.25;0.25;;;;;27.63;69.83;98428.81;4973239;28;8876;-76
2021/07/15 09:56:44;;;;;;;;;1.75;1.75;;;;;27.64;69.37;98427.66;4973431;28;8928;-75
2021/07/15 09:59:13;;;;;;;;;2.50;2.50;;;;;27.72;68.94;98433.84;4973734;28;8857;-75
2021/07/15 10:01:51;;;;;;;;;1.75;1.75;;;;;27.76;68.67;98442.75;4973612;28;8873;-76
2021/07/15 10:04:28;;;;;;;;;1.25;1.25;;;;;27.80;66.86;98449.72;4973095;28;8865;-75
2021/07/15 10:06:57;;;;;;;;;1.50;1.50;;;;;27.80;66.24;98452.44;4974492;28;9685;-74
2021/07/15 10:09:31;;;;;;;;;0.75;0.75;;;;;27.84;66.55;98460.56;4973811;28;8931;-75
2021/07/15 10:12:00;;;;;;;;;1.00;1.00;;;;;27.87;65.62;98470.63;4973209;28;8865;-75
2021/07/15 10:14:37;;;;;;;;;1.00;1.00;;;;;27.97;66.28;98475.28;4975757;28;8915;-75
2021/07/15 10:17:07;;;;;;;;;2.75;2.75;;;;;28.02;66.81;98471.38;4974402;28;8875;-75
2021/07/15 10:19:36;;;;;;;;;0.75;0.75;;;;;28.07;66.00;98473.72;4974575;28;8872;-75
2021/07/15 10:22:10;;;;;;;;;2.00;2.00;;;;;28.12;65.93;98481.44;4974319;28;8872;-76
2021/07/15 10:24:39;;;;;;;;;1.00;1.00;;;;;28.15;65.18;98491.53;4974455;28;9628;-76
2021/07/15 10:27:10;;;;;;;;;0.75;0.75;;;;;28.18;64.82;98482.59;4974226;28;8848;-76
2021/07/15 10:29:39;;;;;;;;;2.50;2.50;;;;;28.21;65.07;98479.09;4974288;28;8931;-75
2021/07/15 10:32:11;;;;;;;;;1.75;1.75;;;;;28.22;65.51;98483.41;4974099;28;9011;-76
2021/07/15 10:34:41;;;;;;;;;1.75;1.75;;;;;28.26;65.32;98484.16;4974052;28;8864;-75
2021/07/15 10:37:09;;;;;;;;;2.00;2.00;;;;;28.28;65.70;98489.97;4974252;28;8880;-76
2021/07/15 10:39:39;;;;;;;;;2.25;2.25;;;;;28.29;66.63;98496.19;4974350;28;8852;-75
2021/07/15 10:42:08;;;;;;;;;3.00;3.00;;;;;28.31;66.10;98504.69;4974250;28;8896;-76
2021/07/15 10:44:39;;;;;;;;;2.50;2.50;;;;;28.31;66.01;98505.47;4974145;28;8887;-77
2021/07/15 10:47:07;;;;;;;;;2.00;2.00;;;;;28.29;66.44;98491.53;4974146;28;8855;-76
2021/07/15 10:49:38;;;;;;;;;1.50;1.50;;;;;28.31;66.35;98489.19;4975067;28;9609;-75
2021/07/15 10:52:09;;;;;;;;;2.00;2.00;;;;;28.32;66.60;98496.16;4974841;28;8848;-75
2021/07/15 10:54:40;;;;;;;;;1.75;1.75;;;;;28.34;66.07;98493.84;4974739;28;8932;-75
2021/07/15 10:57:10;;;;;;;;;1.50;1.50;;;;;28.33;65.99;98497.72;4974731;28;8856;-75
2021/07/15 10:59:39;;;;;;;;;2.50;2.50;;;;;28.33;67.59;98499.66;4974767;28;8938;-75
2021/07/15 11:02:28;;;;;;;;;2.00;2.00;;;;;28.33;66.29;98508.56;4975156;28;8868;-75
2021/07/15 11:04:57;;;;;;;;;2.00;2.00;;;;;28.32;67.49;98517.88;4975143;28;8879;-75
2021/07/15 11:07:34;;;;;;;;;1.00;1.00;;;;;28.31;66.84;98513.63;4975353;28;8872;-75
2021/07/15 11:10:19;;;;;;;;;1.00;1.00;;;;;28.31;67.84;98520.97;4974603;28;8844;-75
2021/07/15 11:12:59;;;;;;;;;2.00;2.00;;;;;28.29;68.25;98513.22;4957300;28;8934;-75
2021/07/15 11:15:52;;;;;;;;;1.00;1.00;;;;;28.25;67.71;98513.22;4957566;28;8848;-75
2021/07/15 11:18:57;;;;;;;;;1.50;1.50;;;;;28.25;68.69;98512.47;4974501;28;8963;-75
2021/07/15 11:21:26;;;;;;;;;1.75;1.75;;;;;28.19;67.66;98524.84;4973493;28;9642;-75
2021/07/15 11:24:14;;;;;;;;;0.75;0.75;;;;;28.14;68.82;98514.38;4974385;28;8837;-75
2021/07/15 11:26:43;;;;;;;;;3.25;3.25;;;;;28.08;69.06;98529.50;4974760;28;8907;-75
2021/07/15 11:29:12;;;;;;;;;2.00;2.00;;;;;28.02;69.05;98520.19;4974225;28;8920;-75
2021/07/15 11:31:44;;;;;;;;;2.50;2.50;;;;;28.04;69.29;98523.28;4974356;28;8872;-76
2021/07/15 11:34:40;;;;;;;;;4.50;4.50;;;;;28.03;69.68;98521.75;4974365;28;8875;-75
2021/07/15 11:37:35;;;;;;;;;2.50;2.50;;;;;27.99;69.22;98521.75;4974285;28;8840;-75
2021/07/15 11:40:18;;;;;;;;;2.75;2.75;;;;;27.98;69.19;98531.03;4973976;28;8882;-75
2021/07/15 11:42:46;;;;;;;;;2.50;2.50;;;;;27.98;68.97;98530.25;4974085;28;8971;-75
2021/07/15 11:45:14;;;;;;;;;4.25;4.25;;;;;27.98;68.48;98533.75;4973989;28;8903;-75
2021/07/15 11:47:51;;;;;;;;;1.50;1.50;;;;;27.97;68.69;98539.56;4973920;28;8934;-75
2021/07/15 11:50:33;;;;;;;;;3.00;3.00;;;;;27.96;68.91;98540.72;4974115;28;8852;-75
2021/07/15 11:53:18;;;;;;;;;2.00;2.00;;;;;27.96;69.48;98544.22;4956585;28;8872;-75
2021/07/15 11:55:51;;;;;;;;;3.00;3.00;;;;;27.96;70.17;98544.22;4973823;28;8946;-75
2021/07/15 11:58:46;;;;;;;;;2.25;2.25;;;;;27.96;68.85;98541.50;4973562;28;8927;-75
2021/07/15 12:01:30;;;;;;;;;1.75;1.75;;;;;27.89;70.13;98541.50;4973737;28;8879;-75
2021/07/15 12:04:09;;;;;;;;;2.25;2.25;;;;;27.86;70.10;98547.69;4973656;28;9721;-75
2021/07/15 12:06:43;;;;;;;;;3.75;3.75;;;;;27.82;70.40;98550.41;4973643;28;8854;-75
2021/07/15 12:09:14;;;;;;;;;3.25;3.25;;;;;27.81;70.71;98553.50;4973610;28;8867;-75